sensor_id;sensor_type;location;lat;lon;timestamp;pressure;altitude;pressure_sealevel;temperature;humidity
21664;BME280;10993;52.510;13.456;2023-05-13T00:02:54;56670.13;;;-146.93;35.12
21664;BME280;10993;52.510;13.456;2023-05-13T00:07:54;56655.94;;;-146.93;35.24
21664;BME280;10993;52.510;13.456;2023-05-13T00:12:55;56625.59;;;-146.93;35.29
21664;BME280;10993;52.510;13.456;2023-05-13T00:17:57;56645.81;;;-146.93;35.60
21664;BME280;10993;52.510;13.456;2023-05-13T00:22:57;56627.59;;;-146.93;35.80
21664;BME280;10993;52.510;13.456;2023-05-13T00:27:58;56536.50;;;-146.93;35.86
21664;BME280;10993;52.510;13.456;2023-05-13T00:32:59;56625.59;;;-146.93;35.93
21664;BME280;10993;52.510;13.456;2023-05-13T00:38:00;56587.13;;;-146.93;35.97
21664;BME280;10993;52.510;13.456;2023-05-13T00:43:00;56623.56;;;-146.93;36.20
21664;BME280;10993;52.510;13.456;2023-05-13T00:48:04;57413.28;;;-146.93;36.17
21664;BME280;10993;52.510;13.456;2023-05-13T00:53:05;56647.84;;;-146.93;36.19
21664;BME280;10993;52.510;13.456;2023-05-13T00:58:05;56629.63;;;-146.93;36.37
21664;BME280;10993;52.510;13.456;2023-05-13T01:03:11;56635.72;;;-146.93;36.33
21664;BME280;10993;52.510;13.456;2023-05-13T01:08:16;56609.38;;;-146.93;36.63
21664;BME280;10993;52.510;13.456;2023-05-13T01:13:22;56585.09;;;-146.93;36.55
21664;BME280;10993;52.510;13.456;2023-05-13T01:18:28;56629.63;;;-146.93;36.79
21664;BME280;10993;52.510;13.456;2023-05-13T01:23:32;56548.66;;;-146.93;36.77
21664;BME280;10993;52.510;13.456;2023-05-13T01:28:32;56589.13;;;-146.93;36.89
21664;BME280;10993;52.510;13.456;2023-05-13T01:33:33;56621.53;;;-146.93;36.89
21664;BME280;10993;52.510;13.456;2023-05-13T01:38:35;56595.22;;;-146.93;37.19
21664;BME280;10993;52.510;13.456;2023-05-13T01:43:36;56522.31;;;-146.93;37.13
21664;BME280;10993;52.510;13.456;2023-05-13T01:48:37;56550.66;;;-146.93;37.18
21664;BME280;10993;52.510;13.456;2023-05-13T01:53:38;56554.72;;;-146.93;37.42
21664;BME280;10993;52.510;13.456;2023-05-13T01:58:39;56532.44;;;-146.93;37.35
21664;BME280;10993;52.510;13.456;2023-05-13T02:03:39;56552.69;;;-146.93;37.57
21664;BME280;10993;52.510;13.456;2023-05-13T02:08:41;56585.09;;;-146.93;37.78
21664;BME280;10993;52.510;13.456;2023-05-13T02:13:41;56500.06;;;-146.93;38.02
21664;BME280;10993;52.510;13.456;2023-05-13T02:18:41;56568.88;;;-146.93;38.09
21664;BME280;10993;52.510;13.456;2023-05-13T02:23:43;56556.75;;;-146.93;38.21
21664;BME280;10993;52.510;13.456;2023-05-13T02:28:43;56554.72;;;-146.93;38.04
21664;BME280;10993;52.510;13.456;2023-05-13T02:33:44;56564.84;;;-146.93;38.09
21664;BME280;10993;52.510;13.456;2023-05-13T02:38:45;56562.81;;;-146.93;37.95
21664;BME280;10993;52.510;13.456;2023-05-13T02:43:46;56564.84;;;-146.93;38.17
21664;BME280;10993;52.510;13.456;2023-05-13T02:48:46;56587.13;;;-146.93;38.25
21664;BME280;10993;52.510;13.456;2023-05-13T02:53:48;56526.38;;;-146.93;38.27
21664;BME280;10993;52.510;13.456;2023-05-13T02:58:48;56532.44;;;-146.93;38.41
21664;BME280;10993;52.510;13.456;2023-05-13T03:03:49;56520.28;;;-146.93;38.64
21664;BME280;10993;52.510;13.456;2023-05-13T03:08:50;56469.69;;;-146.93;38.89
21664;BME280;10993;52.510;13.456;2023-05-13T03:13:51;56510.19;;;-146.93;39.08
21664;BME280;10993;52.510;13.456;2023-05-13T03:18:51;56524.34;;;-146.93;39.19
21664;BME280;10993;52.510;13.456;2023-05-13T03:23:53;56463.59;;;-146.93;39.43
21664;BME280;10993;52.510;13.456;2023-05-13T03:28:53;56483.84;;;-146.93;39.66
21664;BME280;10993;52.510;13.456;2023-05-13T03:33:53;56473.72;;;-146.93;39.51
21664;BME280;10993;52.510;13.456;2023-05-13T03:38:55;56427.16;;;-146.93;39.67
21664;BME280;10993;52.510;13.456;2023-05-13T03:43:55;56455.50;;;-146.93;39.80
21664;BME280;10993;52.510;13.456;2023-05-13T03:48:56;56473.72;;;-146.93;39.59
21664;BME280;10993;52.510;13.456;2023-05-13T03:53:57;56500.06;;;-146.93;39.41
21664;BME280;10993;52.510;13.456;2023-05-13T03:58:58;56487.91;;;-146.93;39.49
21664;BME280;10993;52.510;13.456;2023-05-13T04:03:58;56516.25;;;-146.93;38.66
21664;BME280;10993;52.510;13.456;2023-05-13T04:09:00;56512.19;;;-146.93;38.25
21664;BME280;10993;52.510;13.456;2023-05-13T04:14:03;56700.50;;;-146.93;36.59
21664;BME280;10993;52.510;13.456;2023-05-13T04:19:03;56718.72;;;-146.93;35.60
21664;BME280;10993;52.510;13.456;2023-05-13T04:24:05;56741.00;;;-146.93;34.64
21664;BME280;10993;52.510;13.456;2023-05-13T04:29:06;56708.59;;;-146.93;34.49
21664;BME280;10993;52.510;13.456;2023-05-13T04:34:06;56807.81;;;-146.93;33.33
21664;BME280;10993;52.510;13.456;2023-05-13T04:39:08;56822.00;;;-146.93;33.27
21664;BME280;10993;52.510;13.456;2023-05-13T04:44:10;57067.00;;;-146.93;31.24
21664;BME280;10993;52.510;13.456;2023-05-13T04:49:10;57083.19;;;-146.93;30.82
21664;BME280;10993;52.510;13.456;2023-05-13T04:54:12;57056.88;;;-146.93;31.13
21664;BME280;10993;52.510;13.456;2023-05-13T04:59:12;57129.78;;;-146.93;29.88
21664;BME280;10993;52.510;13.456;2023-05-13T05:04:12;57287.72;;;-146.93;29.74
21664;BME280;10993;52.510;13.456;2023-05-13T05:09:14;57281.66;;;-146.93;28.98
21664;BME280;10993;52.510;13.456;2023-05-13T05:14:14;57476.06;;;-146.93;28.31
21664;BME280;10993;52.510;13.456;2023-05-13T05:19:15;57727.22;;;-146.93;27.01
21664;BME280;10993;52.510;13.456;2023-05-13T05:24:16;57498.34;;;-146.93;27.70
21664;BME280;10993;52.510;13.456;2023-05-13T05:29:17;57601.66;;;-146.93;27.15
21664;BME280;10993;52.510;13.456;2023-05-13T05:34:17;57603.66;;;-146.93;27.25
21664;BME280;10993;52.510;13.456;2023-05-13T05:39:19;57923.69;;;-146.93;26.10
21664;BME280;10993;52.510;13.456;2023-05-13T05:44:19;57790.00;;;-146.93;25.71
21664;BME280;10993;52.510;13.456;2023-05-13T05:49:20;57935.84;;;-146.93;26.10
21664;BME280;10993;52.510;13.456;2023-05-13T05:54:21;57611.78;;;-146.93;26.75
21664;BME280;10993;52.510;13.456;2023-05-13T05:59:21;57925.72;;;-146.93;25.62
21664;BME280;10993;52.510;13.456;2023-05-13T06:04:22;57698.84;;;-146.93;26.52
21664;BME280;10993;52.510;13.456;2023-05-13T06:09:25;57844.69;;;-146.93;25.99
21664;BME280;10993;52.510;13.456;2023-05-13T06:14:25;57986.47;;;-146.93;25.66
21664;BME280;10993;52.510;13.456;2023-05-13T06:19:25;58112.06;;;-146.93;25.09
21664;BME280;10993;52.510;13.456;2023-05-13T06:24:27;58144.47;;;-146.93;24.97
21664;BME280;10993;52.510;13.456;2023-05-13T06:29:27;58278.16;;;-146.93;24.17
21664;BME280;10993;52.510;13.456;2023-05-13T06:34:28;58736.00;;;-146.93;23.21
21664;BME280;10993;52.510;13.456;2023-05-13T06:39:30;58521.25;;;-146.93;23.36
21664;BME280;10993;52.510;13.456;2023-05-13T06:44:30;58715.75;;;-146.93;23.44
21664;BME280;10993;52.510;13.456;2023-05-13T06:49:31;59613.38;;;-146.93;21.74
21664;BME280;10993;52.510;13.456;2023-05-13T06:54:33;58979.13;;;-146.93;22.54
21664;BME280;10993;52.510;13.456;2023-05-13T06:59:34;59299.28;;;-146.93;22.00
21664;BME280;10993;52.510;13.456;2023-05-13T07:04:34;58894.03;;;-146.93;22.61
21664;BME280;10993;52.510;13.456;2023-05-13T07:09:36;59017.63;;;-146.93;21.97
21664;BME280;10993;52.510;13.456;2023-05-13T07:14:36;59060.19;;;-146.93;21.96
21664;BME280;10993;52.510;13.456;2023-05-13T07:19:37;59039.91;;;-146.93;22.24
21664;BME280;10993;52.510;13.456;2023-05-13T07:24:39;58695.50;;;-146.93;22.13
21664;BME280;10993;52.510;13.456;2023-05-13T07:29:40;59331.69;;;-146.93;21.68
21664;BME280;10993;52.510;13.456;2023-05-13T07:34:41;59068.28;;;-146.93;20.92
21664;BME280;10993;52.510;13.456;2023-05-13T07:39:42;58711.69;;;-146.93;21.25
21664;BME280;10993;52.510;13.456;2023-05-13T07:44:43;59163.53;;;-146.93;20.65
21664;BME280;10993;52.510;13.456;2023-05-13T07:49:43;58703.59;;;-146.93;21.00
21664;BME280;10993;52.510;13.456;2023-05-13T07:54:45;58347.03;;;-146.93;21.85
21664;BME280;10993;52.510;13.456;2023-05-13T07:59:45;58176.88;;;-146.93;22.61
21664;BME280;10993;52.510;13.456;2023-05-13T08:04:45;58310.56;;;-146.93;22.27
21664;BME280;10993;52.510;13.456;2023-05-13T08:09:47;58505.06;;;-146.93;22.14
21664;BME280;10993;52.510;13.456;2023-05-13T08:14:48;58432.13;;;-146.93;22.43
21664;BME280;10993;52.510;13.456;2023-05-13T08:19:48;58432.13;;;-146.93;22.80
21664;BME280;10993;52.510;13.456;2023-05-13T08:24:49;58148.53;;;-146.93;23.27
21664;BME280;10993;52.510;13.456;2023-05-13T08:29:50;58270.06;;;-146.93;23.24
21664;BME280;10993;52.510;13.456;2023-05-13T08:34:50;58197.13;;;-146.93;23.26
21664;BME280;10993;52.510;13.456;2023-05-13T08:39:52;58326.78;;;-146.93;22.98
21664;BME280;10993;52.510;13.456;2023-05-13T08:44:55;58209.28;;;-146.93;23.13
21664;BME280;10993;52.510;13.456;2023-05-13T08:49:55;58351.09;;;-146.93;23.11
21664;BME280;10993;52.510;13.456;2023-05-13T08:54:58;58509.09;;;-146.93;22.31
21664;BME280;10993;52.510;13.456;2023-05-13T09:00:00;58343.00;;;-146.93;22.72
21664;BME280;10993;52.510;13.456;2023-05-13T09:05:03;58898.09;;;-146.93;21.67
21664;BME280;10993;52.510;13.456;2023-05-13T09:10:07;58663.06;;;-146.93;22.07
21664;BME280;10993;52.510;13.456;2023-05-13T09:15:09;58819.06;;;-146.93;21.51
21664;BME280;10993;52.510;13.456;2023-05-13T09:20:11;58766.41;;;-146.93;21.70
21664;BME280;10993;52.510;13.456;2023-05-13T09:25:15;58857.56;;;-146.93;21.57
21664;BME280;10993;52.510;13.456;2023-05-13T09:30:16;58733.97;;;-146.93;21.59
21664;BME280;10993;52.510;13.456;2023-05-13T09:35:16;58569.88;;;-146.93;21.68
21664;BME280;10993;52.510;13.456;2023-05-13T09:40:18;58606.34;;;-146.93;22.09
21664;BME280;10993;52.510;13.456;2023-05-13T09:45:18;58272.09;;;-146.93;21.52
21664;BME280;10993;52.510;13.456;2023-05-13T09:50:19;58490.88;;;-146.93;20.39
21664;BME280;10993;52.510;13.456;2023-05-13T09:55:21;58551.66;;;-146.93;20.20
21664;BME280;10993;52.510;13.456;2023-05-13T10:00:21;58582.03;;;-146.93;20.62
21664;BME280;10993;52.510;13.456;2023-05-13T10:05:22;58703.59;;;-146.93;20.17
21664;BME280;10993;52.510;13.456;2023-05-13T10:10:25;58707.66;;;-146.93;19.75
21664;BME280;10993;52.510;13.456;2023-05-13T10:15:25;58472.63;;;-146.93;20.13
21664;BME280;10993;52.510;13.456;2023-05-13T10:20:27;58707.66;;;-146.93;19.83
21664;BME280;10993;52.510;13.456;2023-05-13T10:25:29;58505.06;;;-146.93;20.16
21664;BME280;10993;52.510;13.456;2023-05-13T10:30:31;58606.34;;;-146.93;20.15
21664;BME280;10993;52.510;13.456;2023-05-13T10:35:37;58784.63;;;-146.93;19.95
21664;BME280;10993;52.510;13.456;2023-05-13T10:40:54;58671.19;;;-146.93;20.11
21664;BME280;10993;52.510;13.456;2023-05-13T10:46:00;58727.91;;;-146.93;20.20
21664;BME280;10993;52.510;13.456;2023-05-13T10:51:03;58541.53;;;-146.93;20.26
21664;BME280;10993;52.510;13.456;2023-05-13T10:56:08;58748.16;;;-146.93;19.50
21664;BME280;10993;52.510;13.456;2023-05-13T11:01:16;58701.56;;;-146.93;19.76
21664;BME280;10993;52.510;13.456;2023-05-13T11:06:17;58527.34;;;-146.93;20.13
21664;BME280;10993;52.510;13.456;2023-05-13T11:11:25;58415.91;;;-146.93;19.95
21664;BME280;10993;52.510;13.456;2023-05-13T11:16:26;58474.66;;;-146.93;20.15
21664;BME280;10993;52.510;13.456;2023-05-13T11:21:30;58539.50;;;-146.93;20.22
21664;BME280;10993;52.510;13.456;2023-05-13T11:26:43;58661.06;;;-146.93;19.69
21664;BME280;10993;52.510;13.456;2023-05-13T11:31:48;58533.41;;;-146.93;19.90
21664;BME280;10993;52.510;13.456;2023-05-13T11:36:50;58338.94;;;-146.93;20.28
21664;BME280;10993;52.510;13.456;2023-05-13T11:41:53;58590.13;;;-146.93;19.90
21664;BME280;10993;52.510;13.456;2023-05-13T11:47:04;58492.91;;;-146.93;20.35
21664;BME280;10993;52.510;13.456;2023-05-13T11:52:09;58501.00;;;-146.93;19.96
21664;BME280;10993;52.510;13.456;2023-05-13T11:57:21;58580.00;;;-146.93;20.20
21664;BME280;10993;52.510;13.456;2023-05-13T12:02:22;58099.91;;;-146.93;20.50
21664;BME280;10993;52.510;13.456;2023-05-13T12:07:26;57810.25;;;-146.93;21.15
21664;BME280;10993;52.510;13.456;2023-05-13T12:12:29;58383.50;;;-146.93;21.50
21664;BME280;10993;52.510;13.456;2023-05-13T12:17:30;57759.63;;;-146.93;21.82
21664;BME280;10993;52.510;13.456;2023-05-13T12:22:31;57848.75;;;-146.93;21.68
21664;BME280;10993;52.510;13.456;2023-05-13T12:27:33;57824.44;;;-146.93;21.68
21664;BME280;10993;52.510;13.456;2023-05-13T12:32:33;57840.63;;;-146.93;22.09
21664;BME280;10993;52.510;13.456;2023-05-13T12:37:33;57850.75;;;-146.93;21.79
21664;BME280;10993;52.510;13.456;2023-05-13T12:42:35;57783.94;;;-146.93;21.78
21664;BME280;10993;52.510;13.456;2023-05-13T12:47:48;57747.47;;;-146.93;22.59
21664;BME280;10993;52.510;13.456;2023-05-13T12:52:49;57694.81;;;-146.93;22.55
21664;BME280;10993;52.510;13.456;2023-05-13T12:57:59;57755.56;;;-146.93;22.31
21664;BME280;10993;52.510;13.456;2023-05-13T13:03:00;57745.44;;;-146.93;22.52
21664;BME280;10993;52.510;13.456;2023-05-13T13:08:00;57755.56;;;-146.93;22.89
21664;BME280;10993;52.510;13.456;2023-05-13T13:13:02;57873.03;;;-146.93;22.68
21664;BME280;10993;52.510;13.456;2023-05-13T13:18:03;57792.03;;;-146.93;23.08
21664;BME280;10993;52.510;13.456;2023-05-13T13:23:03;57891.28;;;-146.93;23.03
21664;BME280;10993;52.510;13.456;2023-05-13T13:28:05;57919.63;;;-146.93;22.97
21664;BME280;10993;52.510;13.456;2023-05-13T13:33:05;57800.13;;;-146.93;23.34
21664;BME280;10993;52.510;13.456;2023-05-13T13:38:05;57864.94;;;-146.93;23.12
21664;BME280;10993;52.510;13.456;2023-05-13T13:43:08;58160.69;;;-146.93;22.85
21664;BME280;10993;52.510;13.456;2023-05-13T13:48:09;57794.06;;;-146.93;23.10
21664;BME280;10993;52.510;13.456;2023-05-13T13:53:09;57775.81;;;-146.93;23.20
21664;BME280;10993;52.510;13.456;2023-05-13T13:58:11;58555.69;;;-146.93;23.07
21664;BME280;10993;52.510;13.456;2023-05-13T14:03:11;57798.09;;;-146.93;23.27
21664;BME280;10993;52.510;13.456;2023-05-13T14:08:12;57846.72;;;-146.93;23.45
21664;BME280;10993;52.510;13.456;2023-05-13T14:13:14;58022.94;;;-146.93;23.22
21664;BME280;10993;52.510;13.456;2023-05-13T14:18:14;57783.94;;;-146.93;23.29
21664;BME280;10993;52.510;13.456;2023-05-13T14:23:15;57686.72;;;-146.93;23.46
21664;BME280;10993;52.510;13.456;2023-05-13T14:28:16;57709.00;;;-146.93;23.44
21664;BME280;10993;52.510;13.456;2023-05-13T14:33:17;57812.28;;;-146.93;23.13
21664;BME280;10993;52.510;13.456;2023-05-13T14:38:18;57822.41;;;-146.93;23.27
21664;BME280;10993;52.510;13.456;2023-05-13T14:43:20;57771.78;;;-146.93;23.83
21664;BME280;10993;52.510;13.456;2023-05-13T14:48:20;57794.06;;;-146.93;23.47
21664;BME280;10993;52.510;13.456;2023-05-13T14:53:21;57761.66;;;-146.93;23.79
21664;BME280;10993;52.510;13.456;2023-05-13T14:58:22;57662.41;;;-146.93;22.70
21664;BME280;10993;52.510;13.456;2023-05-13T15:03:23;57810.25;;;-146.93;22.94
21664;BME280;10993;52.510;13.456;2023-05-13T15:08:23;57897.34;;;-146.93;22.91
21664;BME280;10993;52.510;13.456;2023-05-13T15:13:25;57915.59;;;-146.93;22.70
21664;BME280;10993;52.510;13.456;2023-05-13T15:18:27;57925.72;;;-146.93;22.41
21664;BME280;10993;52.510;13.456;2023-05-13T15:23:28;57998.63;;;-146.93;22.65
21664;BME280;10993;52.510;13.456;2023-05-13T15:28:30;58065.47;;;-146.93;22.55
21664;BME280;10993;52.510;13.456;2023-05-13T15:33:33;58103.97;;;-146.93;22.23
21664;BME280;10993;52.510;13.456;2023-05-13T15:38:33;59664.03;;;-146.93;22.05
21664;BME280;10993;52.510;13.456;2023-05-13T15:43:35;58024.97;;;-146.93;23.58
21664;BME280;10993;52.510;13.456;2023-05-13T15:48:37;57802.16;;;-146.93;25.40
21664;BME280;10993;52.510;13.456;2023-05-13T15:53:38;57696.84;;;-146.93;26.24
21664;BME280;10993;52.510;13.456;2023-05-13T15:58:40;57676.59;;;-146.93;26.89
21664;BME280;10993;52.510;13.456;2023-05-13T16:03:40;57601.66;;;-146.93;27.54
21664;BME280;10993;52.510;13.456;2023-05-13T16:08:40;57577.34;;;-146.93;29.29
21664;BME280;10993;52.510;13.456;2023-05-13T16:13:42;57711.00;;;-146.93;30.40
21664;BME280;10993;52.510;13.456;2023-05-13T16:18:43;57465.94;;;-146.93;32.45
21664;BME280;10993;52.510;13.456;2023-05-13T16:23:43;57342.41;;;-146.93;32.95
21664;BME280;10993;52.510;13.456;2023-05-13T16:28:45;57346.47;;;-146.93;32.77
21664;BME280;10993;52.510;13.456;2023-05-13T16:33:46;57352.53;;;-146.93;31.96
21664;BME280;10993;52.510;13.456;2023-05-13T16:38:46;57303.94;;;-146.93;32.10
21664;BME280;10993;52.510;13.456;2023-05-13T16:43:47;57443.66;;;-146.93;32.85
21664;BME280;10993;52.510;13.456;2023-05-13T16:48:48;57281.66;;;-146.93;32.33
21664;BME280;10993;52.510;13.456;2023-05-13T16:53:48;57295.84;;;-146.93;31.28
21664;BME280;10993;52.510;13.456;2023-05-13T16:58:50;57318.09;;;-146.93;31.00
21664;BME280;10993;52.510;13.456;2023-05-13T17:03:50;57334.31;;;-146.93;30.79
21664;BME280;10993;52.510;13.456;2023-05-13T17:08:50;57326.22;;;-146.93;30.49
21664;BME280;10993;52.510;13.456;2023-05-13T17:13:52;57307.97;;;-146.93;30.34
21664;BME280;10993;52.510;13.456;2023-05-13T17:18:52;57253.31;;;-146.93;30.33
21664;BME280;10993;52.510;13.456;2023-05-13T17:23:53;57218.88;;;-146.93;30.82
21664;BME280;10993;52.510;13.456;2023-05-13T17:28:54;57208.75;;;-146.93;31.04
21664;BME280;10993;52.510;13.456;2023-05-13T17:33:55;57218.88;;;-146.93;31.22
21664;BME280;10993;52.510;13.456;2023-05-13T17:38:55;57188.50;;;-146.93;31.57
21664;BME280;10993;52.510;13.456;2023-05-13T17:43:57;57164.19;;;-146.93;31.81
21664;BME280;10993;52.510;13.456;2023-05-13T17:48:57;57148.00;;;-146.93;31.87
21664;BME280;10993;52.510;13.456;2023-05-13T17:53:57;57107.50;;;-146.93;32.25
21664;BME280;10993;52.510;13.456;2023-05-13T17:58:59;57083.19;;;-146.93;32.64
21664;BME280;10993;52.510;13.456;2023-05-13T18:04:00;57067.00;;;-146.93;32.56
21664;BME280;10993;52.510;13.456;2023-05-13T18:09:00;57067.00;;;-146.93;32.98
21664;BME280;10993;52.510;13.456;2023-05-13T18:14:02;57048.78;;;-146.93;33.23
21664;BME280;10993;52.510;13.456;2023-05-13T18:19:03;57006.25;;;-146.93;33.57
21664;BME280;10993;52.510;13.456;2023-05-13T18:24:04;56973.84;;;-146.93;33.74
21664;BME280;10993;52.510;13.456;2023-05-13T18:29:06;57028.53;;;-146.93;34.38
21664;BME280;10993;52.510;13.456;2023-05-13T18:34:06;56945.50;;;-146.93;34.34
21664;BME280;10993;52.510;13.456;2023-05-13T18:39:07;56957.66;;;-146.93;34.53
21664;BME280;10993;52.510;13.456;2023-05-13T18:44:10;56815.91;;;-146.93;34.69
21664;BME280;10993;52.510;13.456;2023-05-13T18:49:12;56892.84;;;-146.93;35.13
21664;BME280;10993;52.510;13.456;2023-05-13T18:54:13;56864.50;;;-146.93;35.58
21664;BME280;10993;52.510;13.456;2023-05-13T18:59:14;56878.69;;;-146.93;35.76
21664;BME280;10993;52.510;13.456;2023-05-13T19:04:15;56864.50;;;-146.93;36.14
21664;BME280;10993;52.510;13.456;2023-05-13T19:09:16;56848.31;;;-146.93;36.24
21664;BME280;10993;52.510;13.456;2023-05-13T19:14:17;56751.13;;;-146.93;36.41
21664;BME280;10993;52.510;13.456;2023-05-13T19:19:18;57804.19;;;-146.93;36.64
21664;BME280;10993;52.510;13.456;2023-05-13T19:24:18;56803.75;;;-146.93;36.52
21664;BME280;10993;52.510;13.456;2023-05-13T19:29:20;56751.13;;;-146.93;37.11
21664;BME280;10993;52.510;13.456;2023-05-13T19:34:20;56763.28;;;-146.93;37.33
21664;BME280;10993;52.510;13.456;2023-05-13T19:39:21;56690.38;;;-146.93;37.60
21664;BME280;10993;52.510;13.456;2023-05-13T19:44:22;56722.78;;;-146.93;37.85
21664;BME280;10993;52.510;13.456;2023-05-13T19:49:26;56706.56;;;-146.93;38.05
21664;BME280;10993;52.510;13.456;2023-05-13T19:54:27;56718.72;;;-146.93;38.41
21664;BME280;10993;52.510;13.456;2023-05-13T19:59:28;56734.91;;;-146.93;38.68
21664;BME280;10993;52.510;13.456;2023-05-13T20:04:29;56579.00;;;-146.93;38.89
21664;BME280;10993;52.510;13.456;2023-05-13T20:09:31;56722.78;;;-146.93;39.06
21664;BME280;10993;52.510;13.456;2023-05-13T20:14:44;56718.72;;;-146.93;39.15
21664;BME280;10993;52.510;13.456;2023-05-13T20:19:45;56682.28;;;-146.93;39.33
21664;BME280;10993;52.510;13.456;2023-05-13T20:24:49;56704.53;;;-146.93;39.51
21664;BME280;10993;52.510;13.456;2023-05-13T20:29:51;56702.53;;;-146.93;39.56
21664;BME280;10993;52.510;13.456;2023-05-13T20:34:52;56664.06;;;-146.93;40.05
21664;BME280;10993;52.510;13.456;2023-05-13T20:39:53;56724.78;;;-146.93;39.89
21664;BME280;10993;52.510;13.456;2023-05-13T20:44:55;56720.75;;;-146.93;40.02
21664;BME280;10993;52.510;13.456;2023-05-13T20:49:56;56700.50;;;-146.93;40.15
21664;BME280;10993;52.510;13.456;2023-05-13T20:54:56;56615.47;;;-146.93;40.67
21664;BME280;10993;52.510;13.456;2023-05-13T20:59:58;56700.50;;;-146.93;41.05
21664;BME280;10993;52.510;13.456;2023-05-13T21:04:58;56714.66;;;-146.93;40.99
21664;BME280;10993;52.510;13.456;2023-05-13T21:09:59;56601.28;;;-146.93;41.46
21664;BME280;10993;52.510;13.456;2023-05-13T21:15:01;57010.31;;;-146.93;41.76
21664;BME280;10993;52.510;13.456;2023-05-13T21:20:03;56471.72;;;-146.93;41.71
21664;BME280;10993;52.510;13.456;2023-05-13T21:25:07;56329.97;;;-146.93;42.20
21664;BME280;10993;52.510;13.456;2023-05-13T21:30:10;56714.66;;;-146.93;42.99
21664;BME280;10993;52.510;13.456;2023-05-13T21:35:11;56651.91;;;-146.93;43.63
21664;BME280;10993;52.510;13.456;2023-05-13T21:40:12;56568.88;;;-146.93;44.02
21664;BME280;10993;52.510;13.456;2023-05-13T21:45:14;56660.00;;;-146.93;43.82
21664;BME280;10993;52.510;13.456;2023-05-13T21:50:15;56572.94;;;-146.93;44.55
21664;BME280;10993;52.510;13.456;2023-05-13T21:55:15;56653.94;;;-146.93;44.78
21664;BME280;10993;52.510;13.456;2023-05-13T22:00:17;56649.88;;;-146.93;45.08
21664;BME280;10993;52.510;13.456;2023-05-13T22:05:20;56615.47;;;-146.93;45.86
21664;BME280;10993;52.510;13.456;2023-05-13T22:10:20;56627.59;;;-146.93;46.25
21664;BME280;10993;52.510;13.456;2023-05-13T22:15:22;57621.91;;;-146.93;46.60
21664;BME280;10993;52.510;13.456;2023-05-13T22:20:22;56607.34;;;-146.93;46.93
21664;BME280;10993;52.510;13.456;2023-05-13T22:25:23;56603.31;;;-146.93;46.99
21664;BME280;10993;52.510;13.456;2023-05-13T22:30:24;56633.69;;;-146.93;46.86
21664;BME280;10993;52.510;13.456;2023-05-13T22:35:25;56726.81;;;-146.93;47.15
21664;BME280;10993;52.510;13.456;2023-05-13T22:40:27;56572.94;;;-146.93;48.41
21664;BME280;10993;52.510;13.456;2023-05-13T22:45:29;56538.53;;;-146.93;48.02
21664;BME280;10993;52.510;13.456;2023-05-13T22:50:29;56649.88;;;-146.93;47.55
21664;BME280;10993;52.510;13.456;2023-05-13T22:55:30;56611.41;;;-146.93;47.48
21664;BME280;10993;52.510;13.456;2023-05-13T23:00:31;56603.31;;;-146.93;48.18
21664;BME280;10993;52.510;13.456;2023-05-13T23:05:32;56560.78;;;-146.93;47.77
21664;BME280;10993;52.510;13.456;2023-05-13T23:10:32;56562.81;;;-146.93;48.27
21664;BME280;10993;52.510;13.456;2023-05-13T23:15:36;56566.88;;;-146.93;48.46
21664;BME280;10993;52.510;13.456;2023-05-13T23:20:36;56805.78;;;-146.93;48.35
21664;BME280;10993;52.510;13.456;2023-05-13T23:25:37;56607.34;;;-146.93;48.20
21664;BME280;10993;52.510;13.456;2023-05-13T23:30:39;56593.19;;;-146.93;48.54
21664;BME280;10993;52.510;13.456;2023-05-13T23:35:39;56542.56;;;-146.93;47.98
21664;BME280;10993;52.510;13.456;2023-05-13T23:40:40;56522.31;;;-146.93;48.26
21664;BME280;10993;52.510;13.456;2023-05-13T23:45:45;56548.66;;;-146.93;48.41
21664;BME280;10993;52.510;13.456;2023-05-13T23:50:45;56544.59;;;-146.93;48.09
21664;BME280;10993;52.510;13.456;2023-05-13T23:55:45;56568.88;;;-146.93;47.71
